createdAt,value
2022-12-01T00:01:10.233Z,28.30
2022-12-01T00:03:37.621Z,27.43
2022-12-01T00:06:09.334Z,29.23
2022-12-01T00:08:36.663Z,28.07
2022-12-01T00:11:07.150Z,29.60
2022-12-01T00:13:34.884Z,28.03
2022-12-01T00:16:10.993Z,28.30
2022-12-01T00:18:38.411Z,26.70
2022-12-01T00:21:06.121Z,27.53
2022-12-01T00:23:33.106Z,29.10
2022-12-01T00:26:05.579Z,28.97
2022-12-01T00:28:32.574Z,29.03
2022-12-01T00:31:00.147Z,28.03
2022-12-01T00:33:27.183Z,27.77
2022-12-01T00:35:59.390Z,27.60
2022-12-01T00:38:26.737Z,28.70
2022-12-01T00:40:53.798Z,26.47
2022-12-01T00:43:24.127Z,24.90
2022-12-01T00:45:51.754Z,25.97
2022-12-01T00:48:18.821Z,25.93
2022-12-01T00:50:46.095Z,27.63
2022-12-01T00:53:13.145Z,27.83
2022-12-01T00:55:40.393Z,29.40
2022-12-01T00:58:07.612Z,26.63
2022-12-01T01:00:38.583Z,26.43
2022-12-01T01:03:06.096Z,26.97
2022-12-01T01:05:36.468Z,28.83
2022-12-01T01:08:07.732Z,31.27
2022-12-01T01:10:38.040Z,26.33
2022-12-01T01:13:05.072Z,26.47
2022-12-01T01:15:32.043Z,27.80
2022-12-01T01:18:00.509Z,27.13
2022-12-01T01:20:27.779Z,28.73
2022-12-01T01:22:54.889Z,27.33
2022-12-01T01:25:22.861Z,28.33
2022-12-01T01:27:50.139Z,28.53
2022-12-01T01:30:18.535Z,28.20
2022-12-01T01:32:45.501Z,25.77
2022-12-01T01:35:13.802Z,27.93
2022-12-01T01:37:40.755Z,27.50
2022-12-01T01:40:09.619Z,31.23
2022-12-01T01:42:36.625Z,27.57
2022-12-01T01:45:04.284Z,29.40
2022-12-01T01:47:35.945Z,32.57
2022-12-01T01:50:09.638Z,30.90
2022-12-01T01:52:44.958Z,34.43
2022-12-01T01:55:13.537Z,32.70
2022-12-01T01:57:42.048Z,32.80
2022-12-01T02:00:13.785Z,34.47
2022-12-01T02:02:46.233Z,35.23
2022-12-01T02:05:19.192Z,32.23
2022-12-01T02:07:50.120Z,35.40
2022-12-01T02:10:22.549Z,33.50
2022-12-01T02:13:09.746Z,36.67
2022-12-01T02:15:51.781Z,34.00
2022-12-01T02:18:30.564Z,37.27
2022-12-01T02:21:56.192Z,32.47
2022-12-01T02:25:18.258Z,36.10
2022-12-01T02:28:29.391Z,35.30
2022-12-01T02:31:07.586Z,36.67
2022-12-01T02:33:42.256Z,34.57
2022-12-01T02:36:19.660Z,37.30
2022-12-01T02:38:58.879Z,35.77
2022-12-01T02:41:32.553Z,35.13
2022-12-01T02:44:08.463Z,35.93
2022-12-01T02:46:44.223Z,35.97
2022-12-01T02:49:19.352Z,37.23
2022-12-01T02:51:48.889Z,34.53
2022-12-01T02:54:16.863Z,34.90
2022-12-01T02:56:45.221Z,36.87
2022-12-01T02:59:15.192Z,36.27
2022-12-01T03:02:04.313Z,35.23
2022-12-01T03:04:50.672Z,35.37
2022-12-01T03:07:50.256Z,35.67
2022-12-01T03:10:26.235Z,35.90
2022-12-01T03:13:09.552Z,35.43
2022-12-01T03:15:48.393Z,35.20
2022-12-01T03:18:29.931Z,35.03
2022-12-01T03:21:06.022Z,34.37
2022-12-01T03:23:38.443Z,35.33
2022-12-01T03:26:10.435Z,35.87
2022-12-01T03:28:44.652Z,33.53
2022-12-01T03:31:19.902Z,35.43
2022-12-01T03:33:55.264Z,32.87
2022-12-01T03:36:30.444Z,32.70
2022-12-01T03:39:04.752Z,35.83
2022-12-01T03:41:39.342Z,34.77
2022-12-01T03:44:12.090Z,34.93
2022-12-01T03:46:48.136Z,32.73
2022-12-01T03:49:18.203Z,34.93
2022-12-01T03:51:58.388Z,34.60
2022-12-01T03:54:38.231Z,34.80
2022-12-01T03:57:12.231Z,34.13
2022-12-01T03:59:43.857Z,35.63
2022-12-01T04:02:12.172Z,37.77
2022-12-01T04:04:40.568Z,36.60
2022-12-01T04:07:13.283Z,36.27
2022-12-01T04:09:41.277Z,37.30
2022-12-01T04:12:32.647Z,36.47
2022-12-01T04:15:02.626Z,35.57
2022-12-01T04:17:30.419Z,36.20
2022-12-01T04:19:58.855Z,37.37
2022-12-01T04:22:26.487Z,36.70
2022-12-01T04:24:53.530Z,35.40
2022-12-01T04:27:21.183Z,37.00
2022-12-01T04:29:49.712Z,37.37
2022-12-01T04:32:17.311Z,36.53
2022-12-01T04:34:44.748Z,36.07
2022-12-01T04:37:13.255Z,35.40
2022-12-01T04:39:41.996Z,37.47
2022-12-01T04:42:10.580Z,38.47
2022-12-01T04:44:37.682Z,38.97
2022-12-01T04:47:06.456Z,38.00
2022-12-01T04:49:35.135Z,43.07
2022-12-01T04:52:02.097Z,38.60
2022-12-01T04:54:30.469Z,39.07
2022-12-01T04:56:57.472Z,38.73
2022-12-01T04:59:24.479Z,39.70
2022-12-01T05:01:51.479Z,38.90
2022-12-01T05:04:18.715Z,38.97
2022-12-01T05:06:45.681Z,40.93
2022-12-01T05:09:17.743Z,40.97
2022-12-01T05:11:46.349Z,39.57
2022-12-01T05:14:13.357Z,37.67
2022-12-01T05:16:40.590Z,38.97
2022-12-01T05:19:26.262Z,38.17
2022-12-01T05:21:53.360Z,38.77
2022-12-01T05:24:22.170Z,39.67
2022-12-01T05:26:52.082Z,39.33
2022-12-01T05:29:19.329Z,40.20
2022-12-01T05:31:46.917Z,38.27
2022-12-01T05:34:14.403Z,40.83
2022-12-01T05:36:41.869Z,41.60
2022-12-01T05:39:08.907Z,38.17
2022-12-01T05:41:35.983Z,37.60
2022-12-01T05:44:04.655Z,39.73
2022-12-01T05:46:31.897Z,39.27
2022-12-01T05:48:58.983Z,40.57
2022-12-01T05:51:25.964Z,38.30
2022-12-01T05:53:53.007Z,40.73
2022-12-01T05:56:20.059Z,40.27
2022-12-01T05:58:47.069Z,38.43
2022-12-01T06:01:15.790Z,37.30
2022-12-01T06:03:42.895Z,38.37
2022-12-01T06:06:09.981Z,38.07
2022-12-01T06:08:37.302Z,40.00
2022-12-01T06:11:04.461Z,38.30
2022-12-01T06:13:31.711Z,37.57
2022-12-01T06:16:01.022Z,39.27
2022-12-01T06:18:32.850Z,39.60
2022-12-01T06:21:01.156Z,42.17
2022-12-01T06:23:30.563Z,41.90
2022-12-01T06:25:58.197Z,38.43
2022-12-01T06:28:25.189Z,38.27
2022-12-01T06:30:54.511Z,40.20
2022-12-01T06:33:25.119Z,37.90
2022-12-01T06:35:59.369Z,38.63
2022-12-01T06:38:30.170Z,38.23
2022-12-01T06:40:57.313Z,40.40
2022-12-01T06:43:24.313Z,39.00
2022-12-01T06:45:54.072Z,37.77
2022-12-01T06:48:23.447Z,38.07
2022-12-01T06:50:50.452Z,38.50
2022-12-01T06:53:18.734Z,41.10
2022-12-01T06:55:45.699Z,39.77
2022-12-01T06:58:13.830Z,39.43
2022-12-01T07:00:41.175Z,38.60
2022-12-01T07:03:08.711Z,39.40
2022-12-01T07:05:36.617Z,39.00
2022-12-01T07:08:03.912Z,38.67
2022-12-01T07:10:32.302Z,39.33
2022-12-01T07:12:59.255Z,39.53
2022-12-01T07:15:28.555Z,40.63
2022-12-01T07:17:55.531Z,41.27
2022-12-01T07:20:22.505Z,40.53
2022-12-01T07:22:49.501Z,40.43
2022-12-01T07:25:16.607Z,40.03
2022-12-01T07:27:45.102Z,38.90
2022-12-01T07:30:13.043Z,37.60
2022-12-01T07:32:40.251Z,37.33
2022-12-01T07:35:10.091Z,37.43
2022-12-01T07:37:37.075Z,37.27
2022-12-01T07:40:05.694Z,36.63
2022-12-01T07:42:32.767Z,38.00
2022-12-01T07:45:01.325Z,40.00
2022-12-01T07:47:28.322Z,37.07
2022-12-01T07:49:55.460Z,37.43
2022-12-01T07:52:22.450Z,38.13
2022-12-01T07:54:49.450Z,39.70
2022-12-01T07:57:18.047Z,39.43
2022-12-01T07:59:45.030Z,37.63
2022-12-01T08:02:13.569Z,38.53
2022-12-01T08:04:40.645Z,39.03
2022-12-01T08:07:07.611Z,38.43
2022-12-01T08:09:34.668Z,39.70
2022-12-01T08:12:01.645Z,37.07
2022-12-01T08:14:28.827Z,35.37
2022-12-01T08:16:55.839Z,38.40
2022-12-01T08:19:26.007Z,37.07
2022-12-01T08:21:52.973Z,38.13
2022-12-01T08:24:19.990Z,39.13
2022-12-01T08:26:49.152Z,39.67
2022-12-01T08:29:20.120Z,36.77
2022-12-01T08:31:47.983Z,37.63
2022-12-01T08:34:15.130Z,36.37
2022-12-01T08:36:43.442Z,33.70
2022-12-01T08:39:10.844Z,33.27
2022-12-01T08:41:37.847Z,34.93
2022-12-01T08:44:05.245Z,35.07
2022-12-01T08:46:34.864Z,33.67
2022-12-01T08:49:03.350Z,35.50
2022-12-01T08:51:31.331Z,34.20
2022-12-01T08:54:00.659Z,35.40
2022-12-01T08:56:31.572Z,34.90
2022-12-01T08:58:59.038Z,36.07
2022-12-01T09:01:26.697Z,32.63
2022-12-01T09:04:08.628Z,33.80
2022-12-01T09:06:40.469Z,32.40
2022-12-01T09:09:10.699Z,33.70
2022-12-01T09:11:38.538Z,31.87
2022-12-01T09:14:05.767Z,30.70
2022-12-01T09:16:33.898Z,31.00
2022-12-01T09:19:03.258Z,32.03
2022-12-01T09:21:33.583Z,30.43
2022-12-01T09:24:01.879Z,33.13
2022-12-01T09:26:30.813Z,34.57
2022-12-01T09:29:00.457Z,32.80
2022-12-01T09:31:28.093Z,30.27
2022-12-01T09:33:57.288Z,31.27
2022-12-01T09:36:24.683Z,29.70
2022-12-01T09:38:53.269Z,30.17
2022-12-01T09:41:26.021Z,30.43
2022-12-01T09:44:02.224Z,33.10
2022-12-01T09:46:40.648Z,34.40
2022-12-01T09:49:17.406Z,33.03
2022-12-01T09:51:44.979Z,32.83
2022-12-01T09:54:14.566Z,32.23
2022-12-01T09:56:46.326Z,34.27
2022-12-01T09:59:23.627Z,34.33
2022-12-01T10:01:56.787Z,34.87
2022-12-01T10:04:31.238Z,33.13
2022-12-01T10:07:02.307Z,33.30
2022-12-01T10:09:40.051Z,33.23
2022-12-01T10:12:14.609Z,33.90
2022-12-01T10:14:46.360Z,34.67
2022-12-01T10:17:28.861Z,33.60
2022-12-01T10:20:04.456Z,33.20
2022-12-01T10:23:15.043Z,32.13
2022-12-01T10:25:56.645Z,32.53
2022-12-01T10:28:52.616Z,33.33
2022-12-01T10:31:32.385Z,30.30
2022-12-01T10:34:05.003Z,32.43
2022-12-01T10:36:34.832Z,33.80
2022-12-01T10:39:07.378Z,32.27
2022-12-01T10:41:39.090Z,39.67
2022-12-01T10:44:08.592Z,32.03
2022-12-01T10:46:45.082Z,29.67
2022-12-01T10:49:15.391Z,30.30
2022-12-01T10:51:53.829Z,30.37
2022-12-01T10:54:22.949Z,29.27
2022-12-01T10:56:56.668Z,29.43
2022-12-01T10:59:35.142Z,29.50
2022-12-01T11:02:15.239Z,29.20
2022-12-01T11:04:46.444Z,30.87
2022-12-01T11:07:22.001Z,31.83
2022-12-01T11:10:17.864Z,27.63
2022-12-01T11:12:56.704Z,28.30
2022-12-01T11:15:34.675Z,27.60
2022-12-01T11:18:08.176Z,27.83
2022-12-01T11:20:38.564Z,28.40
2022-12-01T11:23:29.264Z,27.47
2022-12-01T11:26:05.213Z,26.90
2022-12-01T11:28:35.078Z,27.07
2022-12-01T11:31:06.495Z,27.83
2022-12-01T11:33:48.713Z,28.67
2022-12-01T11:36:35.410Z,27.17
2022-12-01T11:39:04.009Z,26.70
2022-12-01T11:41:39.524Z,26.27
2022-12-01T11:47:25.405Z,26.97
2022-12-01T11:49:57.742Z,29.30
2022-12-01T11:52:30.536Z,28.57
2022-12-01T11:55:23.549Z,27.20
2022-12-01T11:57:55.560Z,30.37
2022-12-01T12:00:26.308Z,30.83
2022-12-01T12:03:17.206Z,27.50
2022-12-01T12:09:34.568Z,26.10
2022-12-01T12:12:20.558Z,27.00
2022-12-01T12:15:04.671Z,27.47
2022-12-01T12:18:09.217Z,27.50
2022-12-01T12:21:00.292Z,28.07
2022-12-01T12:24:09.677Z,28.63
2022-12-01T12:26:50.022Z,27.27
2022-12-01T12:29:42.887Z,27.93
2022-12-01T12:32:40.299Z,28.57
2022-12-01T12:35:26.678Z,28.93
2022-12-01T12:38:04.511Z,26.87
2022-12-01T12:40:42.771Z,26.63
2022-12-01T12:43:29.237Z,28.37
2022-12-01T12:46:06.000Z,28.77
2022-12-01T12:49:19.636Z,28.87
2022-12-01T12:52:07.835Z,26.47
2022-12-01T12:54:46.660Z,27.30
2022-12-01T12:57:25.703Z,27.73
2022-12-01T13:00:01.015Z,29.43
2022-12-01T13:02:38.192Z,27.17
2022-12-01T13:05:14.754Z,27.00
2022-12-01T13:07:50.242Z,26.00
2022-12-01T13:10:29.270Z,28.63
2022-12-01T13:13:21.269Z,27.00
2022-12-01T13:15:52.369Z,26.87
2022-12-01T13:18:39.150Z,30.40
2022-12-01T13:21:10.027Z,26.43
2022-12-01T13:23:38.572Z,26.73
2022-12-01T13:26:09.914Z,25.10
2022-12-01T13:28:44.544Z,27.00
2022-12-01T13:31:16.775Z,26.87
2022-12-01T13:33:58.688Z,28.20
2022-12-01T13:36:46.249Z,27.03
2022-12-01T13:39:20.666Z,29.50
2022-12-01T13:42:00.388Z,28.60
2022-12-01T13:44:38.456Z,27.37
2022-12-01T13:47:39.744Z,29.57
2022-12-01T13:51:02.555Z,26.97
2022-12-01T13:53:36.520Z,28.83
2022-12-01T13:56:39.630Z,29.37
2022-12-01T14:00:10.853Z,28.97
2022-12-01T14:02:39.774Z,30.23
2022-12-01T14:05:55.011Z,29.40
2022-12-01T14:08:25.575Z,27.87
2022-12-01T14:10:58.151Z,28.17
2022-12-01T14:13:28.196Z,27.80
2022-12-01T14:16:00.310Z,28.93
2022-12-01T14:18:43.237Z,28.87
2022-12-01T14:21:12.436Z,28.73
2022-12-01T14:24:00.728Z,28.87
2022-12-01T14:26:31.137Z,29.60
2022-12-01T14:29:39.944Z,29.37
2022-12-01T14:32:26.520Z,29.17
2022-12-01T14:35:10.611Z,29.77
2022-12-01T14:37:46.159Z,30.33
2022-12-01T14:40:23.061Z,26.93
2022-12-01T14:43:14.158Z,28.57
2022-12-01T14:45:54.019Z,27.43
2022-12-01T14:48:37.250Z,26.43
2022-12-01T14:51:23.899Z,27.77
2022-12-01T14:53:55.968Z,28.73
2022-12-01T14:56:28.603Z,27.63
2022-12-01T14:58:59.239Z,28.40
2022-12-01T15:01:32.578Z,26.27
2022-12-01T15:04:04.988Z,26.93
2022-12-01T15:06:35.817Z,27.07
2022-12-01T15:09:33.004Z,25.73
2022-12-01T15:12:01.073Z,28.30
2022-12-01T15:14:34.669Z,30.80
2022-12-01T15:17:05.101Z,30.77
2022-12-01T15:19:37.671Z,29.40
2022-12-01T15:22:16.211Z,28.17
2022-12-01T15:24:44.881Z,25.87
2022-12-01T15:27:33.218Z,27.57
2022-12-01T15:30:05.965Z,28.23
2022-12-01T15:32:38.173Z,30.17
2022-12-01T15:35:18.624Z,29.83
2022-12-01T15:37:46.406Z,29.03
2022-12-01T15:43:18.811Z,27.47
2022-12-01T15:45:55.305Z,34.27
2022-12-01T15:48:33.076Z,29.73
2022-12-01T15:51:11.244Z,33.97
2022-12-01T15:53:45.714Z,28.27
2022-12-01T15:56:13.819Z,27.83
2022-12-01T15:58:46.294Z,29.33
2022-12-01T16:01:23.593Z,27.73
2022-12-01T16:04:03.235Z,27.53
2022-12-01T16:06:39.172Z,27.07
2022-12-01T16:09:21.255Z,28.57
2022-12-01T16:12:21.010Z,28.50
2022-12-01T16:14:55.852Z,28.20
2022-12-01T16:17:24.343Z,29.73
2022-12-01T16:20:23.771Z,28.27
2022-12-01T16:22:58.644Z,27.77
2022-12-01T16:25:34.017Z,27.20
2022-12-01T16:28:01.787Z,27.23
2022-12-01T16:30:36.231Z,28.20
2022-12-01T16:33:06.856Z,27.77
2022-12-01T16:35:34.060Z,23.77
2022-12-01T16:38:12.708Z,25.10
2022-12-01T16:40:41.178Z,22.53
2022-12-01T16:43:14.574Z,23.73
2022-12-01T16:45:41.840Z,21.53
2022-12-01T16:48:09.580Z,21.37
2022-12-01T16:50:37.871Z,21.43
2022-12-01T16:53:06.232Z,20.23
2022-12-01T16:55:49.752Z,20.23
2022-12-01T16:58:16.867Z,19.43
2022-12-01T17:00:44.635Z,20.53
2022-12-01T17:03:14.955Z,30.30
2022-12-01T17:05:42.150Z,20.83
2022-12-01T17:08:10.974Z,20.03
2022-12-01T17:10:41.002Z,19.30
2022-12-01T17:13:08.008Z,18.87
2022-12-01T17:15:35.387Z,20.20
2022-12-01T17:18:02.346Z,18.57
2022-12-01T17:20:29.580Z,19.63
2022-12-01T17:22:56.652Z,19.43
2022-12-01T17:25:26.301Z,20.08
2022-12-01T17:27:53.487Z,16.27
2022-12-01T17:30:21.016Z,16.93
2022-12-01T17:32:48.031Z,16.07
2022-12-01T17:35:15.103Z,16.40
2022-12-01T17:37:42.654Z,15.50
2022-12-01T17:40:15.776Z,17.85
2022-12-01T17:42:48.764Z,16.90
2022-12-01T17:45:18.779Z,17.03
2022-12-01T17:47:45.857Z,17.13
2022-12-01T17:50:12.846Z,16.43
2022-12-01T17:52:39.876Z,17.00
2022-12-01T17:55:08.576Z,16.40
2022-12-01T17:57:35.762Z,16.87
2022-12-01T18:00:06.697Z,16.83
2022-12-01T18:02:33.729Z,16.33
2022-12-01T18:05:00.807Z,16.60
2022-12-01T18:07:28.806Z,17.00
2022-12-01T18:09:55.873Z,17.90
2022-12-01T18:12:22.943Z,16.10
2022-12-01T18:14:50.172Z,17.47
2022-12-01T18:17:19.078Z,17.60
2022-12-01T18:19:46.042Z,16.87
2022-12-01T18:22:13.013Z,16.50
2022-12-01T18:24:39.967Z,17.20
2022-12-01T18:27:06.889Z,16.43
2022-12-01T18:29:33.901Z,16.70
2022-12-01T18:32:01.383Z,14.77
2022-12-01T18:34:29.757Z,16.60
2022-12-01T18:36:57.037Z,15.67
2022-12-01T18:39:24.054Z,16.77
2022-12-01T18:41:51.078Z,15.57
2022-12-01T18:44:18.164Z,15.07
2022-12-01T18:46:45.946Z,14.20
2022-12-01T18:49:13.228Z,14.77
2022-12-01T18:51:42.267Z,13.40
2022-12-01T18:54:14.108Z,15.25
2022-12-01T18:56:41.310Z,13.40
2022-12-01T18:59:11.181Z,18.10
2022-12-01T19:01:43.843Z,13.30
2022-12-01T19:04:11.664Z,13.10
2022-12-01T19:06:41.655Z,11.70
2022-12-01T19:09:11.958Z,10.60
2022-12-01T19:11:40.522Z,12.70
2022-12-01T19:14:11.550Z,10.90
2022-12-01T19:16:39.711Z,10.30
2022-12-01T19:19:06.745Z,13.13
2022-12-01T19:21:33.726Z,9.53
2022-12-01T19:24:02.075Z,10.30
2022-12-01T19:26:29.079Z,11.23
2022-12-01T19:28:56.011Z,10.37
2022-12-01T19:31:24.741Z,10.03
2022-12-01T19:33:53.905Z,10.07
2022-12-01T19:36:23.796Z,11.63
2022-12-01T19:38:51.818Z,10.03
2022-12-01T19:41:20.752Z,10.57
2022-12-01T19:43:48.888Z,10.77
2022-12-01T19:46:19.685Z,12.20
2022-12-01T19:48:48.005Z,10.83
2022-12-01T19:51:19.951Z,10.73
2022-12-01T19:53:47.186Z,11.93
2022-12-01T19:56:14.481Z,9.80
2022-12-01T19:58:43.080Z,10.80
2022-12-01T20:01:13.164Z,11.63
2022-12-01T20:03:40.874Z,10.33
2022-12-01T20:06:11.099Z,10.43
2022-12-01T20:08:39.232Z,11.77
2022-12-01T20:11:07.199Z,11.23
2022-12-01T20:13:36.874Z,11.43
2022-12-01T20:16:08.357Z,10.60
2022-12-01T20:18:36.272Z,10.87
2022-12-01T20:21:06.050Z,10.87
2022-12-01T20:23:33.498Z,11.47
2022-12-01T20:26:01.262Z,11.50
2022-12-01T20:28:29.120Z,11.03
2022-12-01T20:30:56.927Z,10.73
2022-12-01T20:33:27.023Z,11.10
2022-12-01T20:35:54.666Z,11.47
2022-12-01T20:38:27.043Z,12.67
2022-12-01T20:40:54.866Z,11.80
2022-12-01T20:43:22.127Z,12.20
2022-12-01T20:45:49.256Z,12.17
2022-12-01T20:48:17.384Z,12.03
2022-12-01T20:50:46.195Z,11.67
2022-12-01T20:53:14.064Z,12.47
2022-12-01T20:55:41.057Z,12.93
2022-12-01T20:58:09.797Z,12.67
2022-12-01T21:00:39.009Z,13.13
2022-12-01T21:03:06.282Z,12.40
2022-12-01T21:05:33.372Z,13.53
2022-12-01T21:08:02.359Z,13.00
2022-12-01T21:10:29.502Z,13.60
2022-12-01T21:13:24.106Z,15.63
2022-12-01T21:16:00.128Z,15.93
2022-12-01T21:18:41.680Z,14.83
2022-12-01T21:21:24.239Z,14.03
2022-12-01T21:24:18.587Z,17.57
2022-12-01T21:26:49.674Z,17.53
2022-12-01T21:29:22.614Z,16.90
2022-12-01T21:31:54.027Z,16.97
2022-12-01T21:34:23.427Z,19.97
2022-12-01T21:36:54.036Z,16.93
2022-12-01T21:39:24.489Z,17.73
2022-12-01T21:41:56.246Z,18.57
2022-12-01T21:44:32.740Z,17.47
2022-12-01T21:47:15.867Z,18.67
2022-12-01T21:49:45.031Z,18.37
2022-12-01T21:52:17.843Z,19.27
2022-12-01T21:54:47.281Z,18.33
2022-12-01T21:57:32.050Z,18.50
2022-12-01T22:00:28.891Z,19.80
2022-12-01T22:03:21.633Z,20.07
2022-12-01T22:06:13.718Z,19.70
2022-12-01T22:08:45.341Z,20.03
2022-12-01T22:11:18.717Z,20.03
2022-12-01T22:13:52.848Z,18.80
2022-12-01T22:16:25.874Z,20.33
2022-12-01T22:18:55.682Z,19.20
2022-12-01T22:21:41.204Z,19.37
2022-12-01T22:24:32.441Z,19.37
2022-12-01T22:27:27.146Z,19.53
2022-12-01T22:30:00.199Z,20.33
2022-12-01T22:32:55.874Z,18.60
2022-12-01T22:35:35.232Z,20.73
2022-12-01T22:38:34.712Z,18.17
2022-12-01T22:41:06.735Z,19.53
2022-12-01T22:43:48.144Z,18.03
2022-12-01T22:46:29.586Z,17.37
2022-12-01T22:48:59.665Z,18.70
2022-12-01T22:51:38.183Z,19.97
2022-12-01T22:54:28.992Z,18.80
2022-12-01T22:57:11.183Z,18.33
2022-12-01T22:59:43.116Z,19.17
2022-12-01T23:02:21.229Z,19.33
2022-12-01T23:04:51.848Z,19.70
2022-12-01T23:07:35.035Z,19.43
2022-12-01T23:10:13.997Z,18.90
2022-12-01T23:12:41.328Z,20.57
2022-12-01T23:15:24.212Z,20.23
2022-12-01T23:17:52.211Z,18.73
2022-12-01T23:20:32.310Z,19.23
2022-12-01T23:23:03.792Z,18.83
2022-12-01T23:25:31.452Z,19.50
2022-12-01T23:28:02.691Z,21.20
2022-12-01T23:30:31.022Z,20.30
2022-12-01T23:33:14.172Z,21.33
2022-12-01T23:35:48.446Z,20.37
2022-12-01T23:38:19.114Z,20.03
2022-12-01T23:40:47.669Z,18.90
2022-12-01T23:43:20.464Z,20.87
2022-12-01T23:45:56.170Z,20.90
2022-12-01T23:48:31.602Z,21.37
2022-12-01T23:50:58.647Z,21.53
2022-12-01T23:53:29.427Z,20.53
2022-12-01T23:56:02.814Z,22.90
2022-12-01T23:58:29.890Z,21.63
